sensor_id;sensor_type;location;lat;lon;timestamp;P1;durP1;ratioP1;P2;durP2;ratioP2
36291;SDS011;22327;51.208;6.418;2023-02-28T00:01:21;8.25;;;4.50;;
36291;SDS011;22327;51.208;6.418;2023-02-28T00:03:47;5.57;;;4.18;;
36291;SDS011;22327;51.208;6.418;2023-02-28T00:06:13;7.90;;;4.55;;
36291;SDS011;22327;51.208;6.418;2023-02-28T00:08:39;9.48;;;4.75;;
36291;SDS011;22327;51.208;6.418;2023-02-28T00:11:06;7.15;;;4.43;;
36291;SDS011;22327;51.208;6.418;2023-02-28T00:13:37;5.85;;;4.60;;
36291;SDS011;22327;51.208;6.418;2023-02-28T00:16:05;10.05;;;4.43;;
36291;SDS011;22327;51.208;6.418;2023-02-28T00:18:34;8.18;;;4.32;;
36291;SDS011;22327;51.208;6.418;2023-02-28T00:21:00;7.13;;;4.38;;
36291;SDS011;22327;51.208;6.418;2023-02-28T00:23:26;8.32;;;5.22;;
36291;SDS011;22327;51.208;6.418;2023-02-28T00:25:52;7.00;;;4.57;;
36291;SDS011;22327;51.208;6.418;2023-02-28T00:28:18;7.00;;;4.97;;
36291;SDS011;22327;51.208;6.418;2023-02-28T00:30:44;5.63;;;4.70;;
36291;SDS011;22327;51.208;6.418;2023-02-28T00:33:09;6.53;;;5.00;;
36291;SDS011;22327;51.208;6.418;2023-02-28T00:35:35;7.18;;;5.00;;
36291;SDS011;22327;51.208;6.418;2023-02-28T00:38:01;7.28;;;4.90;;
36291;SDS011;22327;51.208;6.418;2023-02-28T00:40:27;6.78;;;4.68;;
36291;SDS011;22327;51.208;6.418;2023-02-28T00:42:52;8.27;;;5.30;;
36291;SDS011;22327;51.208;6.418;2023-02-28T00:45:18;6.93;;;4.82;;
36291;SDS011;22327;51.208;6.418;2023-02-28T00:47:44;6.18;;;4.70;;
36291;SDS011;22327;51.208;6.418;2023-02-28T00:50:11;7.50;;;4.97;;
36291;SDS011;22327;51.208;6.418;2023-02-28T00:52:37;6.70;;;5.05;;
36291;SDS011;22327;51.208;6.418;2023-02-28T00:55:02;8.82;;;5.50;;
36291;SDS011;22327;51.208;6.418;2023-02-28T00:57:28;8.95;;;5.18;;
36291;SDS011;22327;51.208;6.418;2023-02-28T00:59:54;8.95;;;5.05;;
36291;SDS011;22327;51.208;6.418;2023-02-28T01:02:20;8.23;;;5.38;;
36291;SDS011;22327;51.208;6.418;2023-02-28T01:04:46;7.82;;;5.50;;
36291;SDS011;22327;51.208;6.418;2023-02-28T01:07:12;7.40;;;5.50;;
36291;SDS011;22327;51.208;6.418;2023-02-28T01:09:39;11.35;;;5.78;;
36291;SDS011;22327;51.208;6.418;2023-02-28T01:12:06;8.02;;;5.85;;
36291;SDS011;22327;51.208;6.418;2023-02-28T01:14:32;7.20;;;5.75;;
36291;SDS011;22327;51.208;6.418;2023-02-28T01:16:59;8.43;;;5.82;;
36291;SDS011;22327;51.208;6.418;2023-02-28T01:19:24;7.03;;;5.20;;
36291;SDS011;22327;51.208;6.418;2023-02-28T01:21:50;7.97;;;5.43;;
36291;SDS011;22327;51.208;6.418;2023-02-28T01:24:15;8.85;;;5.32;;
36291;SDS011;22327;51.208;6.418;2023-02-28T01:26:41;7.93;;;5.10;;
36291;SDS011;22327;51.208;6.418;2023-02-28T01:29:07;6.55;;;5.35;;
36291;SDS011;22327;51.208;6.418;2023-02-28T01:31:32;6.80;;;5.30;;
36291;SDS011;22327;51.208;6.418;2023-02-28T01:33:58;7.85;;;5.82;;
36291;SDS011;22327;51.208;6.418;2023-02-28T01:36:24;7.63;;;5.22;;
36291;SDS011;22327;51.208;6.418;2023-02-28T01:38:50;8.20;;;5.30;;
36291;SDS011;22327;51.208;6.418;2023-02-28T01:41:17;8.70;;;5.22;;
36291;SDS011;22327;51.208;6.418;2023-02-28T01:43:53;12.38;;;5.35;;
36291;SDS011;22327;51.208;6.418;2023-02-28T01:46:21;6.88;;;5.10;;
36291;SDS011;22327;51.208;6.418;2023-02-28T01:48:51;8.15;;;5.75;;
36291;SDS011;22327;51.208;6.418;2023-02-28T01:51:22;10.23;;;6.25;;
36291;SDS011;22327;51.208;6.418;2023-02-28T01:53:58;10.70;;;5.65;;
36291;SDS011;22327;51.208;6.418;2023-02-28T01:56:27;8.57;;;5.68;;
36291;SDS011;22327;51.208;6.418;2023-02-28T01:58:57;8.20;;;6.38;;
36291;SDS011;22327;51.208;6.418;2023-02-28T02:01:24;10.45;;;6.50;;
36291;SDS011;22327;51.208;6.418;2023-02-28T02:03:55;9.98;;;6.45;;
36291;SDS011;22327;51.208;6.418;2023-02-28T02:06:30;9.02;;;6.15;;
36291;SDS011;22327;51.208;6.418;2023-02-28T02:09:08;9.23;;;5.97;;
36291;SDS011;22327;51.208;6.418;2023-02-28T02:11:34;11.23;;;6.50;;
36291;SDS011;22327;51.208;6.418;2023-02-28T02:16:55;9.15;;;5.85;;
36291;SDS011;22327;51.208;6.418;2023-02-28T02:25:25;8.80;;;5.82;;
36291;SDS011;22327;51.208;6.418;2023-02-28T02:31:33;10.88;;;5.65;;
36291;SDS011;22327;51.208;6.418;2023-02-28T02:34:23;9.55;;;6.15;;
36291;SDS011;22327;51.208;6.418;2023-02-28T02:37:24;8.43;;;5.93;;
36291;SDS011;22327;51.208;6.418;2023-02-28T02:40:13;8.32;;;5.47;;
36291;SDS011;22327;51.208;6.418;2023-02-28T02:42:48;7.78;;;4.80;;
36291;SDS011;22327;51.208;6.418;2023-02-28T02:45:40;8.30;;;5.18;;
36291;SDS011;22327;51.208;6.418;2023-02-28T02:48:11;7.10;;;4.57;;
36291;SDS011;22327;51.208;6.418;2023-02-28T02:50:44;7.70;;;4.82;;
36291;SDS011;22327;51.208;6.418;2023-02-28T02:55:43;5.65;;;4.32;;
36291;SDS011;22327;51.208;6.418;2023-02-28T02:58:13;6.00;;;4.30;;
36291;SDS011;22327;51.208;6.418;2023-02-28T03:00:43;8.13;;;4.95;;
36291;SDS011;22327;51.208;6.418;2023-02-28T03:03:13;8.15;;;4.88;;
36291;SDS011;22327;51.208;6.418;2023-02-28T03:05:44;7.13;;;4.18;;
36291;SDS011;22327;51.208;6.418;2023-02-28T03:08:12;9.27;;;4.78;;
36291;SDS011;22327;51.208;6.418;2023-02-28T03:10:45;7.10;;;4.20;;
36291;SDS011;22327;51.208;6.418;2023-02-28T03:16:17;6.35;;;4.68;;
36291;SDS011;22327;51.208;6.418;2023-02-28T03:19:18;6.95;;;4.75;;
36291;SDS011;22327;51.208;6.418;2023-02-28T03:21:52;7.90;;;4.60;;
36291;SDS011;22327;51.208;6.418;2023-02-28T03:24:43;6.88;;;5.00;;
36291;SDS011;22327;51.208;6.418;2023-02-28T03:29:54;6.47;;;4.70;;
36291;SDS011;22327;51.208;6.418;2023-02-28T03:32:33;9.77;;;5.40;;
36291;SDS011;22327;51.208;6.418;2023-02-28T03:35:23;7.57;;;4.82;;
36291;SDS011;22327;51.208;6.418;2023-02-28T03:37:55;9.60;;;5.38;;
36291;SDS011;22327;51.208;6.418;2023-02-28T03:40:26;7.43;;;5.32;;
36291;SDS011;22327;51.208;6.418;2023-02-28T03:42:56;11.20;;;6.38;;
36291;SDS011;22327;51.208;6.418;2023-02-28T03:45:28;9.37;;;5.50;;
36291;SDS011;22327;51.208;6.418;2023-02-28T03:47:57;8.93;;;5.68;;
36291;SDS011;22327;51.208;6.418;2023-02-28T03:50:38;9.18;;;5.55;;
36291;SDS011;22327;51.208;6.418;2023-02-28T03:53:13;8.02;;;5.38;;
36291;SDS011;22327;51.208;6.418;2023-02-28T03:58:58;7.55;;;5.57;;
36291;SDS011;22327;51.208;6.418;2023-02-28T04:01:35;9.15;;;5.57;;
36291;SDS011;22327;51.208;6.418;2023-02-28T04:04:10;7.15;;;5.03;;
36291;SDS011;22327;51.208;6.418;2023-02-28T04:06:37;11.27;;;6.30;;
36291;SDS011;22327;51.208;6.418;2023-02-28T04:09:03;10.60;;;6.10;;
36291;SDS011;22327;51.208;6.418;2023-02-28T04:11:33;7.60;;;5.72;;
36291;SDS011;22327;51.208;6.418;2023-02-28T04:14:03;8.80;;;5.93;;
36291;SDS011;22327;51.208;6.418;2023-02-28T04:16:30;10.82;;;5.57;;
36291;SDS011;22327;51.208;6.418;2023-02-28T04:18:56;11.27;;;6.32;;
36291;SDS011;22327;51.208;6.418;2023-02-28T04:21:27;12.18;;;6.32;;
36291;SDS011;22327;51.208;6.418;2023-02-28T04:23:57;7.93;;;5.53;;
36291;SDS011;22327;51.208;6.418;2023-02-28T04:26:25;11.27;;;5.78;;
36291;SDS011;22327;51.208;6.418;2023-02-28T04:28:54;9.38;;;6.57;;
36291;SDS011;22327;51.208;6.418;2023-02-28T04:31:20;8.73;;;5.93;;
36291;SDS011;22327;51.208;6.418;2023-02-28T04:33:46;11.90;;;6.07;;
36291;SDS011;22327;51.208;6.418;2023-02-28T04:36:11;11.40;;;6.22;;
36291;SDS011;22327;51.208;6.418;2023-02-28T04:38:38;8.10;;;5.70;;
36291;SDS011;22327;51.208;6.418;2023-02-28T04:41:04;8.68;;;5.40;;
36291;SDS011;22327;51.208;6.418;2023-02-28T04:43:30;13.05;;;6.35;;
36291;SDS011;22327;51.208;6.418;2023-02-28T04:45:57;10.43;;;4.95;;
36291;SDS011;22327;51.208;6.418;2023-02-28T04:48:25;7.97;;;5.63;;
36291;SDS011;22327;51.208;6.418;2023-02-28T04:50:53;9.43;;;5.35;;
36291;SDS011;22327;51.208;6.418;2023-02-28T04:53:18;8.63;;;5.32;;
36291;SDS011;22327;51.208;6.418;2023-02-28T04:55:45;10.18;;;5.47;;
36291;SDS011;22327;51.208;6.418;2023-02-28T04:58:11;8.75;;;5.15;;
36291;SDS011;22327;51.208;6.418;2023-02-28T05:00:39;9.10;;;5.05;;
36291;SDS011;22327;51.208;6.418;2023-02-28T05:03:05;8.70;;;4.97;;
36291;SDS011;22327;51.208;6.418;2023-02-28T05:05:30;6.78;;;4.80;;
36291;SDS011;22327;51.208;6.418;2023-02-28T05:07:56;8.43;;;4.80;;
36291;SDS011;22327;51.208;6.418;2023-02-28T05:10:22;7.82;;;4.30;;
36291;SDS011;22327;51.208;6.418;2023-02-28T05:12:48;7.45;;;4.30;;
36291;SDS011;22327;51.208;6.418;2023-02-28T05:15:14;7.40;;;3.83;;
36291;SDS011;22327;51.208;6.418;2023-02-28T05:17:41;7.38;;;4.47;;
36291;SDS011;22327;51.208;6.418;2023-02-28T05:20:07;6.93;;;3.97;;
36291;SDS011;22327;51.208;6.418;2023-02-28T05:22:35;8.38;;;4.13;;
36291;SDS011;22327;51.208;6.418;2023-02-28T05:25:02;4.88;;;3.70;;
36291;SDS011;22327;51.208;6.418;2023-02-28T05:27:29;6.00;;;3.83;;
36291;SDS011;22327;51.208;6.418;2023-02-28T05:29:55;7.18;;;3.55;;
36291;SDS011;22327;51.208;6.418;2023-02-28T05:32:21;5.07;;;3.58;;
36291;SDS011;22327;51.208;6.418;2023-02-28T05:34:47;5.97;;;3.65;;
36291;SDS011;22327;51.208;6.418;2023-02-28T05:37:12;5.55;;;3.58;;
36291;SDS011;22327;51.208;6.418;2023-02-28T05:39:39;6.13;;;3.63;;
36291;SDS011;22327;51.208;6.418;2023-02-28T05:42:05;4.03;;;3.00;;
36291;SDS011;22327;51.208;6.418;2023-02-28T05:44:31;6.22;;;3.90;;
36291;SDS011;22327;51.208;6.418;2023-02-28T05:46:57;5.35;;;3.20;;
36291;SDS011;22327;51.208;6.418;2023-02-28T05:49:22;7.75;;;3.70;;
36291;SDS011;22327;51.208;6.418;2023-02-28T05:51:48;5.90;;;3.40;;
36291;SDS011;22327;51.208;6.418;2023-02-28T05:54:13;5.70;;;3.38;;
36291;SDS011;22327;51.208;6.418;2023-02-28T05:56:39;6.38;;;3.30;;
36291;SDS011;22327;51.208;6.418;2023-02-28T05:59:08;5.22;;;3.30;;
36291;SDS011;22327;51.208;6.418;2023-02-28T06:04:06;5.20;;;3.13;;
36291;SDS011;22327;51.208;6.418;2023-02-28T06:06:34;5.18;;;3.42;;
36291;SDS011;22327;51.208;6.418;2023-02-28T06:09:00;5.65;;;3.00;;
36291;SDS011;22327;51.208;6.418;2023-02-28T06:11:26;4.03;;;2.78;;
36291;SDS011;22327;51.208;6.418;2023-02-28T06:13:53;4.95;;;2.95;;
36291;SDS011;22327;51.208;6.418;2023-02-28T06:16:24;5.75;;;3.00;;
36291;SDS011;22327;51.208;6.418;2023-02-28T06:18:50;4.32;;;2.78;;
36291;SDS011;22327;51.208;6.418;2023-02-28T06:21:17;4.57;;;3.03;;
36291;SDS011;22327;51.208;6.418;2023-02-28T06:23:43;4.63;;;2.70;;
36291;SDS011;22327;51.208;6.418;2023-02-28T06:26:09;5.97;;;3.13;;
36291;SDS011;22327;51.208;6.418;2023-02-28T06:28:35;4.57;;;3.08;;
36291;SDS011;22327;51.208;6.418;2023-02-28T06:31:05;5.65;;;2.97;;
36291;SDS011;22327;51.208;6.418;2023-02-28T06:33:35;5.25;;;2.88;;
36291;SDS011;22327;51.208;6.418;2023-02-28T06:36:02;5.18;;;2.72;;
36291;SDS011;22327;51.208;6.418;2023-02-28T06:38:29;5.75;;;3.30;;
36291;SDS011;22327;51.208;6.418;2023-02-28T06:40:55;3.60;;;2.70;;
36291;SDS011;22327;51.208;6.418;2023-02-28T06:43:22;5.10;;;2.78;;
36291;SDS011;22327;51.208;6.418;2023-02-28T06:45:48;3.25;;;2.22;;
36291;SDS011;22327;51.208;6.418;2023-02-28T06:48:14;3.22;;;2.45;;
36291;SDS011;22327;51.208;6.418;2023-02-28T06:50:39;4.78;;;2.50;;
36291;SDS011;22327;51.208;6.418;2023-02-28T06:53:05;4.43;;;2.42;;
36291;SDS011;22327;51.208;6.418;2023-02-28T06:55:30;4.97;;;2.50;;
36291;SDS011;22327;51.208;6.418;2023-02-28T06:57:56;4.30;;;2.80;;
36291;SDS011;22327;51.208;6.418;2023-02-28T07:00:22;3.92;;;2.88;;
36291;SDS011;22327;51.208;6.418;2023-02-28T07:02:48;4.30;;;2.45;;
36291;SDS011;22327;51.208;6.418;2023-02-28T07:05:14;4.60;;;2.85;;
36291;SDS011;22327;51.208;6.418;2023-02-28T07:07:39;3.72;;;2.70;;
36291;SDS011;22327;51.208;6.418;2023-02-28T07:10:09;4.32;;;2.60;;
36291;SDS011;22327;51.208;6.418;2023-02-28T07:12:36;3.28;;;2.50;;
36291;SDS011;22327;51.208;6.418;2023-02-28T07:15:02;5.55;;;2.47;;
36291;SDS011;22327;51.208;6.418;2023-02-28T07:17:29;5.80;;;2.70;;
36291;SDS011;22327;51.208;6.418;2023-02-28T07:19:54;2.97;;;2.40;;
36291;SDS011;22327;51.208;6.418;2023-02-28T07:22:20;2.72;;;2.10;;
36291;SDS011;22327;51.208;6.418;2023-02-28T07:24:45;3.60;;;2.22;;
36291;SDS011;22327;51.208;6.418;2023-02-28T07:27:11;4.00;;;2.47;;
36291;SDS011;22327;51.208;6.418;2023-02-28T07:29:36;3.58;;;2.22;;
36291;SDS011;22327;51.208;6.418;2023-02-28T07:32:03;2.95;;;2.13;;
36291;SDS011;22327;51.208;6.418;2023-02-28T07:34:28;3.85;;;2.45;;
36291;SDS011;22327;51.208;6.418;2023-02-28T07:36:54;3.05;;;2.20;;
36291;SDS011;22327;51.208;6.418;2023-02-28T07:39:20;6.78;;;2.35;;
36291;SDS011;22327;51.208;6.418;2023-02-28T07:41:46;3.10;;;2.08;;
36291;SDS011;22327;51.208;6.418;2023-02-28T07:44:12;5.07;;;2.60;;
36291;SDS011;22327;51.208;6.418;2023-02-28T07:46:38;3.45;;;2.40;;
36291;SDS011;22327;51.208;6.418;2023-02-28T07:49:04;4.25;;;2.55;;
36291;SDS011;22327;51.208;6.418;2023-02-28T07:51:30;4.47;;;2.70;;
36291;SDS011;22327;51.208;6.418;2023-02-28T07:53:56;3.00;;;2.00;;
36291;SDS011;22327;51.208;6.418;2023-02-28T07:56:22;3.00;;;2.08;;
36291;SDS011;22327;51.208;6.418;2023-02-28T07:58:48;4.65;;;2.38;;
36291;SDS011;22327;51.208;6.418;2023-02-28T08:01:13;3.53;;;2.38;;
36291;SDS011;22327;51.208;6.418;2023-02-28T08:03:39;3.45;;;2.15;;
36291;SDS011;22327;51.208;6.418;2023-02-28T08:06:06;3.28;;;2.17;;
36291;SDS011;22327;51.208;6.418;2023-02-28T08:08:33;2.85;;;1.83;;
36291;SDS011;22327;51.208;6.418;2023-02-28T08:11:02;3.33;;;2.22;;
36291;SDS011;22327;51.208;6.418;2023-02-28T08:13:28;2.13;;;1.75;;
36291;SDS011;22327;51.208;6.418;2023-02-28T08:15:55;2.42;;;1.58;;
36291;SDS011;22327;51.208;6.418;2023-02-28T08:18:21;1.80;;;1.63;;
36291;SDS011;22327;51.208;6.418;2023-02-28T08:20:47;2.55;;;2.10;;
36291;SDS011;22327;51.208;6.418;2023-02-28T08:23:13;2.55;;;1.75;;
36291;SDS011;22327;51.208;6.418;2023-02-28T08:25:39;3.03;;;1.70;;
36291;SDS011;22327;51.208;6.418;2023-02-28T08:28:04;2.38;;;1.83;;
36291;SDS011;22327;51.208;6.418;2023-02-28T08:30:30;4.30;;;1.70;;
36291;SDS011;22327;51.208;6.418;2023-02-28T08:32:56;2.90;;;1.83;;
36291;SDS011;22327;51.208;6.418;2023-02-28T08:35:21;2.50;;;1.48;;
36291;SDS011;22327;51.208;6.418;2023-02-28T08:37:47;3.22;;;1.65;;
36291;SDS011;22327;51.208;6.418;2023-02-28T08:40:14;2.25;;;1.58;;
36291;SDS011;22327;51.208;6.418;2023-02-28T08:42:43;2.17;;;1.48;;
36291;SDS011;22327;51.208;6.418;2023-02-28T08:45:13;2.13;;;1.60;;
36291;SDS011;22327;51.208;6.418;2023-02-28T08:47:39;4.40;;;1.60;;
36291;SDS011;22327;51.208;6.418;2023-02-28T08:50:05;1.83;;;1.55;;
36291;SDS011;22327;51.208;6.418;2023-02-28T08:52:31;2.35;;;1.58;;
36291;SDS011;22327;51.208;6.418;2023-02-28T08:54:57;5.60;;;1.77;;
36291;SDS011;22327;51.208;6.418;2023-02-28T08:57:23;2.08;;;1.50;;
36291;SDS011;22327;51.208;6.418;2023-02-28T08:59:51;1.83;;;1.50;;
36291;SDS011;22327;51.208;6.418;2023-02-28T09:02:16;2.65;;;1.73;;
36291;SDS011;22327;51.208;6.418;2023-02-28T09:04:42;1.30;;;1.02;;
36291;SDS011;22327;51.208;6.418;2023-02-28T09:07:10;1.90;;;1.40;;
36291;SDS011;22327;51.208;6.418;2023-02-28T09:09:36;2.08;;;1.40;;
36291;SDS011;22327;51.208;6.418;2023-02-28T09:12:01;1.63;;;1.23;;
36291;SDS011;22327;51.208;6.418;2023-02-28T09:14:27;1.30;;;1.20;;
36291;SDS011;22327;51.208;6.418;2023-02-28T09:16:53;5.35;;;1.67;;
36291;SDS011;22327;51.208;6.418;2023-02-28T09:19:19;2.40;;;1.30;;
36291;SDS011;22327;51.208;6.418;2023-02-28T09:21:45;2.17;;;1.50;;
36291;SDS011;22327;51.208;6.418;2023-02-28T09:24:10;2.53;;;1.38;;
36291;SDS011;22327;51.208;6.418;2023-02-28T09:26:39;2.35;;;1.50;;
36291;SDS011;22327;51.208;6.418;2023-02-28T09:29:05;2.22;;;1.13;;
36291;SDS011;22327;51.208;6.418;2023-02-28T09:31:31;2.13;;;0.90;;
36291;SDS011;22327;51.208;6.418;2023-02-28T09:33:57;1.98;;;1.60;;
36291;SDS011;22327;51.208;6.418;2023-02-28T09:36:24;2.45;;;1.10;;
36291;SDS011;22327;51.208;6.418;2023-02-28T09:38:53;2.22;;;1.20;;
36291;SDS011;22327;51.208;6.418;2023-02-28T09:41:20;1.45;;;1.15;;
36291;SDS011;22327;51.208;6.418;2023-02-28T09:43:49;2.38;;;1.40;;
36291;SDS011;22327;51.208;6.418;2023-02-28T09:48:58;1.27;;;1.08;;
36291;SDS011;22327;51.208;6.418;2023-02-28T09:54:24;1.10;;;0.80;;
36291;SDS011;22327;51.208;6.418;2023-02-28T09:59:42;2.38;;;1.30;;
36291;SDS011;22327;51.208;6.418;2023-02-28T10:05:33;2.30;;;1.45;;
36291;SDS011;22327;51.208;6.418;2023-02-28T10:08:31;1.27;;;1.10;;
36291;SDS011;22327;51.208;6.418;2023-02-28T10:11:06;1.52;;;1.17;;
36291;SDS011;22327;51.208;6.418;2023-02-28T10:13:46;2.40;;;1.20;;
36291;SDS011;22327;51.208;6.418;2023-02-28T10:16:38;1.77;;;1.40;;
36291;SDS011;22327;51.208;6.418;2023-02-28T10:19:25;2.13;;;1.30;;
36291;SDS011;22327;51.208;6.418;2023-02-28T10:22:13;1.70;;;1.20;;
36291;SDS011;22327;51.208;6.418;2023-02-28T10:24:52;1.73;;;1.00;;
36291;SDS011;22327;51.208;6.418;2023-02-28T10:27:22;3.00;;;1.10;;
36291;SDS011;22327;51.208;6.418;2023-02-28T10:29:50;2.25;;;0.77;;
36291;SDS011;22327;51.208;6.418;2023-02-28T10:32:25;1.42;;;1.10;;
36291;SDS011;22327;51.208;6.418;2023-02-28T10:34:55;1.77;;;1.17;;
36291;SDS011;22327;51.208;6.418;2023-02-28T10:37:39;1.30;;;1.17;;
36291;SDS011;22327;51.208;6.418;2023-02-28T10:40:07;1.35;;;1.00;;
36291;SDS011;22327;51.208;6.418;2023-02-28T10:42:56;1.38;;;1.00;;
36291;SDS011;22327;51.208;6.418;2023-02-28T10:45:22;1.25;;;1.00;;
36291;SDS011;22327;51.208;6.418;2023-02-28T10:50:33;2.00;;;1.17;;
36291;SDS011;22327;51.208;6.418;2023-02-28T10:56:03;1.58;;;1.02;;
36291;SDS011;22327;51.208;6.418;2023-02-28T10:58:30;1.55;;;1.00;;
36291;SDS011;22327;51.208;6.418;2023-02-28T11:01:12;3.13;;;1.40;;
36291;SDS011;22327;51.208;6.418;2023-02-28T11:03:59;1.52;;;1.30;;
36291;SDS011;22327;51.208;6.418;2023-02-28T11:06:32;2.38;;;1.42;;
36291;SDS011;22327;51.208;6.418;2023-02-28T11:11:49;1.33;;;1.13;;
36291;SDS011;22327;51.208;6.418;2023-02-28T11:14:19;1.88;;;1.35;;
36291;SDS011;22327;51.208;6.418;2023-02-28T11:16:46;2.15;;;1.75;;
36291;SDS011;22327;51.208;6.418;2023-02-28T11:19:22;2.45;;;1.52;;
36291;SDS011;22327;51.208;6.418;2023-02-28T11:21:55;2.28;;;1.33;;
36291;SDS011;22327;51.208;6.418;2023-02-28T11:26:54;2.40;;;1.50;;
36291;SDS011;22327;51.208;6.418;2023-02-28T11:29:23;2.67;;;1.40;;
36291;SDS011;22327;51.208;6.418;2023-02-28T11:34:41;1.48;;;1.30;;
36291;SDS011;22327;51.208;6.418;2023-02-28T11:37:10;2.17;;;1.10;;
36291;SDS011;22327;51.208;6.418;2023-02-28T11:39:39;0.60;;;0.60;;
36291;SDS011;22327;51.208;6.418;2023-02-28T11:42:23;1.88;;;1.30;;
36291;SDS011;22327;51.208;6.418;2023-02-28T11:45:28;2.05;;;1.27;;
36291;SDS011;22327;51.208;6.418;2023-02-28T11:48:20;1.35;;;0.95;;
36291;SDS011;22327;51.208;6.418;2023-02-28T11:51:00;1.90;;;1.40;;
36291;SDS011;22327;51.208;6.418;2023-02-28T11:53:45;2.33;;;1.15;;
36291;SDS011;22327;51.208;6.418;2023-02-28T12:04:27;1.40;;;1.20;;
36291;SDS011;22327;51.208;6.418;2023-02-28T12:07:17;1.33;;;1.10;;
36291;SDS011;22327;51.208;6.418;2023-02-28T12:13:15;3.03;;;1.50;;
36291;SDS011;22327;51.208;6.418;2023-02-28T12:20:57;3.10;;;1.10;;
36291;SDS011;22327;51.208;6.418;2023-02-28T12:23:54;2.95;;;1.50;;
36291;SDS011;22327;51.208;6.418;2023-02-28T12:26:25;1.52;;;1.10;;
36291;SDS011;22327;51.208;6.418;2023-02-28T12:28:58;2.85;;;1.75;;
36291;SDS011;22327;51.208;6.418;2023-02-28T12:31:36;3.40;;;1.88;;
36291;SDS011;22327;51.208;6.418;2023-02-28T12:34:16;4.07;;;3.40;;
36291;SDS011;22327;51.208;6.418;2023-02-28T12:36:48;2.88;;;1.30;;
36291;SDS011;22327;51.208;6.418;2023-02-28T12:39:19;2.65;;;1.55;;
36291;SDS011;22327;51.208;6.418;2023-02-28T12:44:34;2.08;;;1.30;;
36291;SDS011;22327;51.208;6.418;2023-02-28T12:47:08;2.17;;;1.90;;
36291;SDS011;22327;51.208;6.418;2023-02-28T12:52:07;1.77;;;1.50;;
36291;SDS011;22327;51.208;6.418;2023-02-28T12:54:39;1.10;;;0.95;;
36291;SDS011;22327;51.208;6.418;2023-02-28T12:59:49;2.20;;;1.20;;
36291;SDS011;22327;51.208;6.418;2023-02-28T13:11:08;2.55;;;1.80;;
36291;SDS011;22327;51.208;6.418;2023-02-28T13:14:03;0.98;;;0.75;;
36291;SDS011;22327;51.208;6.418;2023-02-28T13:17:18;1.33;;;1.10;;
36291;SDS011;22327;51.208;6.418;2023-02-28T13:19:23;2.25;;;1.35;;
36291;SDS011;22327;51.208;6.418;2023-02-28T13:21:55;1.93;;;1.33;;
36291;SDS011;22327;51.208;6.418;2023-02-28T13:27:17;3.28;;;1.90;;
36291;SDS011;22327;51.208;6.418;2023-02-28T13:29:49;3.13;;;1.60;;
36291;SDS011;22327;51.208;6.418;2023-02-28T13:42:35;1.65;;;1.48;;
36291;SDS011;22327;51.208;6.418;2023-02-28T13:45:27;1.52;;;1.42;;
36291;SDS011;22327;51.208;6.418;2023-02-28T13:52:56;2.13;;;1.08;;
36291;SDS011;22327;51.208;6.418;2023-02-28T13:55:41;1.83;;;1.40;;
36291;SDS011;22327;51.208;6.418;2023-02-28T13:58:25;2.35;;;1.70;;
36291;SDS011;22327;51.208;6.418;2023-02-28T14:03:59;2.40;;;1.70;;
36291;SDS011;22327;51.208;6.418;2023-02-28T14:06:29;1.58;;;1.30;;
36291;SDS011;22327;51.208;6.418;2023-02-28T14:09:05;2.35;;;1.70;;
36291;SDS011;22327;51.208;6.418;2023-02-28T14:11:52;1.67;;;1.50;;
36291;SDS011;22327;51.208;6.418;2023-02-28T14:17:23;3.88;;;1.50;;
36291;SDS011;22327;51.208;6.418;2023-02-28T14:19:48;5.88;;;1.52;;
36291;SDS011;22327;51.208;6.418;2023-02-28T14:28:04;3.20;;;1.90;;
36291;SDS011;22327;51.208;6.418;2023-02-28T14:38:41;2.78;;;1.70;;
36291;SDS011;22327;51.208;6.418;2023-02-28T14:44:00;3.90;;;1.70;;
36291;SDS011;22327;51.208;6.418;2023-02-28T14:46:34;2.90;;;1.77;;
36291;SDS011;22327;51.208;6.418;2023-02-28T14:49:03;2.92;;;1.20;;
36291;SDS011;22327;51.208;6.418;2023-02-28T14:51:31;2.58;;;1.48;;
36291;SDS011;22327;51.208;6.418;2023-02-28T14:53:58;2.83;;;1.60;;
36291;SDS011;22327;51.208;6.418;2023-02-28T14:56:27;4.88;;;2.08;;
36291;SDS011;22327;51.208;6.418;2023-02-28T14:58:59;1.75;;;1.50;;
36291;SDS011;22327;51.208;6.418;2023-02-28T15:01:25;2.58;;;1.85;;
36291;SDS011;22327;51.208;6.418;2023-02-28T15:03:58;4.85;;;1.70;;
36291;SDS011;22327;51.208;6.418;2023-02-28T15:06:28;2.15;;;1.90;;
36291;SDS011;22327;51.208;6.418;2023-02-28T15:09:15;2.95;;;1.70;;
36291;SDS011;22327;51.208;6.418;2023-02-28T15:11:47;2.60;;;2.08;;
36291;SDS011;22327;51.208;6.418;2023-02-28T15:14:15;2.13;;;1.58;;
36291;SDS011;22327;51.208;6.418;2023-02-28T15:16:44;2.95;;;2.22;;
36291;SDS011;22327;51.208;6.418;2023-02-28T15:19:19;2.83;;;1.70;;
36291;SDS011;22327;51.208;6.418;2023-02-28T15:21:49;2.70;;;1.90;;
36291;SDS011;22327;51.208;6.418;2023-02-28T15:26:58;2.38;;;1.80;;
36291;SDS011;22327;51.208;6.418;2023-02-28T15:29:27;3.90;;;1.88;;
36291;SDS011;22327;51.208;6.418;2023-02-28T15:31:56;3.22;;;1.67;;
36291;SDS011;22327;51.208;6.418;2023-02-28T15:34:27;2.40;;;1.80;;
36291;SDS011;22327;51.208;6.418;2023-02-28T15:36:53;5.20;;;3.05;;
36291;SDS011;22327;51.208;6.418;2023-02-28T15:39:26;5.30;;;2.50;;
36291;SDS011;22327;51.208;6.418;2023-02-28T15:42:12;4.00;;;3.60;;
36291;SDS011;22327;51.208;6.418;2023-02-28T15:44:43;3.15;;;2.85;;
36291;SDS011;22327;51.208;6.418;2023-02-28T15:47:19;5.25;;;1.63;;
36291;SDS011;22327;51.208;6.418;2023-02-28T15:49:47;2.35;;;1.60;;
36291;SDS011;22327;51.208;6.418;2023-02-28T15:52:27;2.58;;;1.75;;
36291;SDS011;22327;51.208;6.418;2023-02-28T15:55:18;2.88;;;1.83;;
36291;SDS011;22327;51.208;6.418;2023-02-28T15:57:47;3.38;;;1.80;;
36291;SDS011;22327;51.208;6.418;2023-02-28T16:00:16;2.45;;;1.92;;
36291;SDS011;22327;51.208;6.418;2023-02-28T16:02:45;3.08;;;2.00;;
36291;SDS011;22327;51.208;6.418;2023-02-28T16:07:37;2.65;;;1.90;;
36291;SDS011;22327;51.208;6.418;2023-02-28T16:10:05;1.75;;;1.65;;
36291;SDS011;22327;51.208;6.418;2023-02-28T16:12:33;2.42;;;2.20;;
36291;SDS011;22327;51.208;6.418;2023-02-28T16:15:02;2.47;;;1.50;;
36291;SDS011;22327;51.208;6.418;2023-02-28T16:17:35;2.85;;;2.10;;
36291;SDS011;22327;51.208;6.418;2023-02-28T16:20:13;4.18;;;2.17;;
36291;SDS011;22327;51.208;6.418;2023-02-28T16:22:41;3.10;;;2.08;;
36291;SDS011;22327;51.208;6.418;2023-02-28T16:25:10;2.58;;;2.30;;
36291;SDS011;22327;51.208;6.418;2023-02-28T16:27:37;2.83;;;2.53;;
36291;SDS011;22327;51.208;6.418;2023-02-28T16:30:03;3.60;;;2.20;;
36291;SDS011;22327;51.208;6.418;2023-02-28T16:32:30;2.38;;;1.83;;
36291;SDS011;22327;51.208;6.418;2023-02-28T16:34:59;3.38;;;2.60;;
36291;SDS011;22327;51.208;6.418;2023-02-28T16:37:26;2.72;;;2.00;;
36291;SDS011;22327;51.208;6.418;2023-02-28T16:39:52;2.92;;;2.08;;
36291;SDS011;22327;51.208;6.418;2023-02-28T16:42:21;2.30;;;2.10;;
36291;SDS011;22327;51.208;6.418;2023-02-28T16:44:49;2.50;;;2.30;;
36291;SDS011;22327;51.208;6.418;2023-02-28T16:47:15;2.50;;;2.30;;
36291;SDS011;22327;51.208;6.418;2023-02-28T16:49:41;2.42;;;2.13;;
36291;SDS011;22327;51.208;6.418;2023-02-28T16:52:08;3.63;;;2.60;;
36291;SDS011;22327;51.208;6.418;2023-02-28T16:54:34;4.32;;;2.40;;
36291;SDS011;22327;51.208;6.418;2023-02-28T16:56:59;3.55;;;2.78;;
36291;SDS011;22327;51.208;6.418;2023-02-28T16:59:26;2.42;;;2.03;;
36291;SDS011;22327;51.208;6.418;2023-02-28T17:01:52;3.00;;;2.55;;
36291;SDS011;22327;51.208;6.418;2023-02-28T17:04:18;4.90;;;2.55;;
36291;SDS011;22327;51.208;6.418;2023-02-28T17:06:44;3.83;;;2.53;;
36291;SDS011;22327;51.208;6.418;2023-02-28T17:09:14;3.20;;;2.20;;
36291;SDS011;22327;51.208;6.418;2023-02-28T17:11:42;2.63;;;2.42;;
36291;SDS011;22327;51.208;6.418;2023-02-28T17:14:08;3.13;;;2.30;;
36291;SDS011;22327;51.208;6.418;2023-02-28T17:16:34;3.45;;;3.15;;